Time;durP1;ratioP1;P1;durP2;ratioP2;P2;SDS_P1;SDS_P2;PMS_P1;PMS_P2;Temp;Humidity;BMP_temperature;BMP_pressure;BME280_temperature;BME280_humidity;BME280_pressure;Samples;Min_cycle;Max_cycle;Signal;HPM_P1;HPM_P2
2021/10/03 00:02:21;;;;;;;10.23;7.25;;;17.10;91.90;;;;;;5034520;28;20042;-65
2021/10/03 00:04:47;;;;;;;8.65;6.88;;;17.10;91.80;;;;;;5033548;28;20131;-67
2021/10/03 00:07:14;;;;;;;9.27;6.93;;;17.10;91.80;;;;;;5034844;28;20111;-65
2021/10/03 00:09:39;;;;;;;8.05;6.82;;;17.10;91.70;;;;;;5034428;28;20026;-64
2021/10/03 00:12:05;;;;;;;7.68;6.80;;;17.10;91.50;;;;;;5033236;28;20034;-65
2021/10/03 00:14:31;;;;;;;7.97;7.18;;;17.20;91.30;;;;;;5034668;28;20033;-65
2021/10/03 00:16:57;;;;;;;8.38;6.78;;;17.20;91.20;;;;;;5034639;28;20111;-65
2021/10/03 00:19:23;;;;;;;7.68;6.78;;;17.20;91.00;;;;;;5050014;28;20124;-64
2021/10/03 00:21:49;;;;;;;7.30;6.50;;;17.20;91.00;;;;;;5034188;28;20037;-64
2021/10/03 00:24:15;;;;;;;10.13;7.00;;;17.20;91.00;;;;;;5034285;28;20088;-65
2021/10/03 00:26:41;;;;;;;7.15;6.45;;;17.20;90.90;;;;;;5034493;28;20057;-64
2021/10/03 00:29:07;;;;;;;10.18;6.18;;;17.30;90.80;;;;;;5034465;28;20041;-64
2021/10/03 00:31:33;;;;;;;8.18;6.85;;;17.20;90.80;;;;;;5033977;28;20030;-64
2021/10/03 00:33:59;;;;;;;8.18;7.32;;;17.30;90.70;;;;;;5033208;28;20044;-65
2021/10/03 00:36:24;;;;;;;7.63;6.20;;;17.30;90.70;;;;;;5021354;28;20401;-65
2021/10/03 00:38:50;;;;;;;7.63;6.50;;;17.20;90.80;;;;;;4996936;28;20033;-65
2021/10/03 00:41:16;;;;;;;7.65;6.65;;;17.30;90.70;;;;;;5013619;28;20034;-66
2021/10/03 00:43:42;;;;;;;7.03;6.32;;;17.20;90.80;;;;;;5013289;28;20490;-65
2021/10/03 00:46:08;;;;;;;10.40;6.60;;;17.20;90.90;;;;;;4996843;28;20030;-66
2021/10/03 00:48:34;;;;;;;9.07;6.40;;;17.20;90.90;;;;;;5013463;28;20041;-67
2021/10/03 00:51:00;;;;;;;7.35;6.32;;;17.20;90.80;;;;;;5016563;28;20113;-66
2021/10/03 00:53:28;;;;;;;9.07;6.75;;;17.20;90.90;;;;;;5014213;28;20064;-65
2021/10/03 00:55:55;;;;;;;7.70;6.25;;;17.20;90.70;;;;;;5014278;28;20065;-64
2021/10/03 00:58:21;;;;;;;7.82;6.78;;;17.20;90.80;;;;;;4996650;28;20100;-65
2021/10/03 01:00:47;;;;;;;9.07;7.50;;;17.20;90.70;;;;;;5013926;28;20042;-64
2021/10/03 01:03:12;;;;;;;12.38;8.43;;;17.20;90.70;;;;;;5013986;28;20497;-65
2021/10/03 01:05:38;;;;;;;12.30;9.30;;;17.20;90.70;;;;;;5013043;28;20088;-66
2021/10/03 01:08:05;;;;;;;8.32;6.72;;;17.20;90.70;;;;;;5013909;28;20026;-66
2021/10/03 01:10:32;;;;;;;8.73;7.35;;;17.20;90.70;;;;;;5007817;28;20374;-65
2021/10/03 01:13:08;;;;;;;8.25;7.35;;;17.20;90.80;;;;;;5033452;28;20026;-64
2021/10/03 01:15:36;;;;;;;7.63;6.28;;;17.20;90.80;;;;;;5032263;28;20757;-64
2021/10/03 01:18:02;;;;;;;9.52;6.57;;;17.20;90.80;;;;;;5033461;28;20124;-65
2021/10/03 01:20:29;;;;;;;19.95;13.25;;;17.20;90.80;;;;;;5031973;28;20493;-64
2021/10/03 01:22:55;;;;;;;65.30;40.65;;;17.20;90.80;;;;;;5033174;28;20030;-64
2021/10/03 01:25:21;;;;;;;11.50;8.00;;;17.20;90.80;;;;;;5032146;28;20060;-64
2021/10/03 01:27:47;;;;;;;8.18;7.35;;;17.20;90.80;;;;;;5033436;28;20026;-65
2021/10/03 01:30:16;;;;;;;7.50;6.60;;;17.20;90.80;;;;;;5033553;28;20030;-64
2021/10/03 01:32:42;;;;;;;8.02;6.72;;;17.20;90.70;;;;;;5033199;28;20422;-64
2021/10/03 01:35:09;;;;;;;7.68;6.10;;;17.10;90.70;;;;;;5030984;28;20080;-65
2021/10/03 01:37:36;;;;;;;7.20;6.10;;;17.20;90.70;;;;;;5013569;28;20053;-65
2021/10/03 01:40:05;;;;;;;7.47;6.20;;;17.10;90.70;;;;;;5012313;28;20125;-65
2021/10/03 01:42:30;;;;;;;7.15;6.30;;;17.20;90.60;;;;;;5013178;28;20402;-64
2021/10/03 01:44:56;;;;;;;9.48;6.68;;;17.20;90.50;;;;;;5013399;28;20030;-65
2021/10/03 01:47:21;;;;;;;8.30;6.63;;;17.20;90.50;;;;;;5014753;28;20136;-65
2021/10/03 01:49:48;;;;;;;7.65;6.82;;;17.30;90.50;;;;;;5018484;28;20034;-63
2021/10/03 01:52:14;;;;;;;7.93;6.97;;;17.20;90.60;;;;;;5012805;28;20076;-64
2021/10/03 01:54:39;;;;;;;7.57;6.45;;;17.20;90.70;;;;;;5012623;28;20532;-65
2021/10/03 01:57:06;;;;;;;7.90;7.10;;;17.20;90.70;;;;;;5012348;28;20037;-64
2021/10/03 01:59:32;;;;;;;9.20;6.60;;;17.20;90.80;;;;;;5012789;28;20034;-65
2021/10/03 02:01:58;;;;;;;7.93;6.03;;;17.10;90.80;;;;;;5012374;28;20037;-64
2021/10/03 02:04:25;;;;;;;8.65;6.97;;;17.10;90.80;;;;;;5013995;28;20034;-65
2021/10/03 02:06:54;;;;;;;10.57;7.00;;;17.10;90.90;;;;;;5014211;28;20037;-64
2021/10/03 02:09:22;;;;;;;8.27;6.45;;;17.00;90.90;;;;;;5015704;28;20026;-65
2021/10/03 02:11:52;;;;;;;7.65;6.68;;;17.00;91.00;;;;;;5048478;28;20033;-65
2021/10/03 02:14:19;;;;;;;8.38;6.72;;;17.00;91.00;;;;;;5031826;28;20095;-65
2021/10/03 02:16:46;;;;;;;7.05;6.18;;;17.00;90.90;;;;;;5033632;28;20124;-66
2021/10/03 02:19:11;;;;;;;7.40;5.85;;;17.10;90.90;;;;;;5033476;28;20132;-65
2021/10/03 02:21:38;;;;;;;8.88;6.70;;;17.10;90.90;;;;;;5033173;28;20149;-65
2021/10/03 02:24:06;;;;;;;7.03;5.68;;;17.00;90.90;;;;;;5033081;28;20039;-65
2021/10/03 02:26:32;;;;;;;6.97;6.05;;;17.00;90.90;;;;;;5033516;28;20091;-65
2021/10/03 02:28:58;;;;;;;10.98;6.95;;;17.00;91.00;;;;;;5032226;28;20033;-65
2021/10/03 02:31:23;;;;;;;7.72;6.63;;;17.00;91.00;;;;;;5031594;28;20369;-65
2021/10/03 02:33:50;;;;;;;7.03;6.28;;;17.00;90.90;;;;;;5032569;28;20057;-64
2021/10/03 02:36:21;;;;;;;7.38;6.47;;;17.00;90.90;;;;;;5021372;28;20029;-65
2021/10/03 02:38:48;;;;;;;7.35;6.40;;;17.00;90.80;;;;;;5012194;28;20037;-64
2021/10/03 02:41:14;;;;;;;8.77;6.63;;;17.00;90.90;;;;;;5023959;28;20120;-64
2021/10/03 02:43:44;;;;;;;8.25;6.63;;;17.00;91.50;;;;;;5030392;28;20094;-63
2021/10/03 02:46:09;;;;;;;8.25;7.03;;;17.20;91.60;;;;;;5031460;28;20026;-65
2021/10/03 02:48:38;;;;;;;7.63;6.85;;;17.40;91.00;;;;;;5032905;28;20389;-63
2021/10/03 02:51:04;;;;;;;8.85;6.50;;;17.40;90.60;;;;;;5032382;28;20065;-64
2021/10/03 02:53:30;;;;;;;7.57;6.80;;;17.40;90.50;;;;;;5031647;28;20046;-64
2021/10/03 02:55:56;;;;;;;7.57;6.40;;;17.30;90.40;;;;;;5031152;28;20535;-65
2021/10/03 02:58:22;;;;;;;7.95;7.15;;;17.30;90.50;;;;;;5047871;28;20041;-63
2021/10/03 03:00:50;;;;;;;7.68;6.30;;;17.30;90.50;;;;;;5032316;28;20416;-64
2021/10/03 03:03:16;;;;;;;10.15;6.88;;;17.20;90.50;;;;;;5032769;28;20065;-64
2021/10/03 03:05:42;;;;;;;15.93;7.72;;;17.20;90.50;;;;;;5030277;28;20040;-64
2021/10/03 03:08:08;;;;;;;8.88;7.38;;;17.30;90.40;;;;;;5023903;28;20485;-65
2021/10/03 03:10:34;;;;;;;12.02;7.72;;;17.30;90.40;;;;;;5024545;28;20045;-64
2021/10/03 03:13:00;;;;;;;8.68;7.38;;;17.30;90.30;;;;;;5032735;28;20033;-65
2021/10/03 03:15:26;;;;;;;8.85;7.90;;;17.30;90.10;;;;;;5032697;28;20060;-64
2021/10/03 03:17:52;;;;;;;8.50;7.70;;;17.40;90.00;;;;;;5032080;28;20034;-63
2021/10/03 03:20:18;;;;;;;8.90;8.00;;;17.40;89.80;;;;;;5032837;28;20026;-65
2021/10/03 03:22:44;;;;;;;10.38;7.55;;;17.40;90.10;;;;;;5031618;28;20026;-64
2021/10/03 03:25:13;;;;;;;10.07;7.32;;;17.40;89.50;;;;;;5032281;28;20528;-64
2021/10/03 03:27:39;;;;;;;13.73;8.23;;;17.40;89.50;;;;;;5032924;28;20053;-64
2021/10/03 03:30:07;;;;;;;10.55;8.05;;;17.40;89.30;;;;;;5030805;28;20098;-64
2021/10/03 03:32:32;;;;;;;8.57;7.68;;;17.50;89.30;;;;;;5032095;28;20126;-64
2021/10/03 03:34:58;;;;;;;8.57;7.65;;;17.40;89.90;;;;;;5029786;28;20037;-64
2021/10/03 03:37:24;;;;;;;9.07;8.15;;;17.40;89.20;;;;;;5022232;28;20172;-66
2021/10/03 03:39:49;;;;;;;10.98;7.93;;;17.50;89.20;;;;;;5032816;28;20498;-63
2021/10/03 03:42:15;;;;;;;8.85;7.93;;;17.50;89.20;;;;;;5032195;28;20424;-65
2021/10/03 03:44:40;;;;;;;9.48;8.20;;;17.50;89.20;;;;;;5031334;28;20092;-64
2021/10/03 03:47:06;;;;;;;9.55;8.48;;;17.40;89.30;;;;;;5031355;28;20033;-64
2021/10/03 03:49:32;;;;;;;9.20;8.18;;;17.40;89.10;;;;;;5032423;28;20033;-64
2021/10/03 03:51:57;;;;;;;11.55;8.90;;;17.40;89.40;;;;;;5032249;28;20037;-64
2021/10/03 03:54:23;;;;;;;10.88;9.23;;;17.40;89.40;;;;;;5031212;28;20041;-65
2021/10/03 03:56:49;;;;;;;12.60;8.77;;;17.40;89.40;;;;;;5031871;28;20084;-65
2021/10/03 03:59:15;;;;;;;12.13;9.00;;;17.40;89.50;;;;;;5030756;28;20496;-65
2021/10/03 04:01:40;;;;;;;15.40;9.40;;;17.40;89.30;;;;;;5031179;28;20141;-64
2021/10/03 04:04:06;;;;;;;10.63;8.75;;;17.40;89.40;;;;;;5030513;28;20037;-63
2021/10/03 04:06:31;;;;;;;12.73;9.73;;;17.40;89.30;;;;;;5031019;28;20042;-65
2021/10/03 04:08:57;;;;;;;10.32;8.90;;;17.40;89.30;;;;;;5030943;28;20025;-65
2021/10/03 04:11:23;;;;;;;11.45;9.05;;;17.40;89.40;;;;;;5031344;28;20038;-65
2021/10/03 04:13:48;;;;;;;11.05;9.52;;;17.40;89.50;;;;;;5030619;28;20120;-64
2021/10/03 04:16:14;;;;;;;10.30;9.23;;;17.30;89.40;;;;;;5032979;28;20034;-64
2021/10/03 04:18:40;;;;;;;10.73;9.43;;;17.40;89.30;;;;;;5035586;28;20033;-64
2021/10/03 04:21:05;;;;;;;12.93;11.30;;;17.30;89.50;;;;;;5034791;28;20061;-64
2021/10/03 04:23:31;;;;;;;10.32;9.32;;;17.40;89.50;;;;;;5035166;28;20041;-64
2021/10/03 04:25:56;;;;;;;11.10;10.00;;;17.40;89.60;;;;;;5035036;28;20065;-64
2021/10/03 04:28:25;;;;;;;15.63;9.48;;;17.30;89.60;;;;;;5035146;28;20040;-64
2021/10/03 04:30:51;;;;;;;12.73;10.43;;;17.30;89.60;;;;;;5034094;28;20051;-64
2021/10/03 04:33:17;;;;;;;9.80;8.80;;;17.30;89.80;;;;;;5033547;28;20025;-64
2021/10/03 04:35:43;;;;;;;16.42;10.68;;;17.30;89.80;;;;;;5010230;28;20585;-63
2021/10/03 04:38:08;;;;;;;12.68;10.18;;;17.30;89.80;;;;;;5015369;28;20045;-65
2021/10/03 04:40:34;;;;;;;13.25;9.98;;;17.30;89.60;;;;;;5015148;28;20034;-63
2021/10/03 04:43:00;;;;;;;12.55;10.32;;;17.30;89.70;;;;;;5014907;28;20034;-64
2021/10/03 04:45:25;;;;;;;12.95;10.13;;;17.30;89.90;;;;;;5012431;28;20026;-63
2021/10/03 04:47:51;;;;;;;11.82;10.40;;;17.30;89.90;;;;;;5035178;28;20060;-65
2021/10/03 04:50:16;;;;;;;12.77;10.48;;;17.30;90.00;;;;;;5035325;28;20041;-63
2021/10/03 04:52:43;;;;;;;14.82;10.55;;;17.30;89.70;;;;;;5035303;28;20068;-64
2021/10/03 04:55:09;;;;;;;14.43;10.30;;;17.30;89.90;;;;;;5035249;28;20025;-64
2021/10/03 04:57:36;;;;;;;13.13;10.68;;;17.40;89.80;;;;;;5034763;28;20034;-64
2021/10/03 05:00:03;;;;;;;12.00;10.05;;;17.30;89.80;;;;;;5033926;28;20527;-64
2021/10/03 05:02:29;;;;;;;11.45;10.25;;;17.30;90.00;;;;;;5033512;28;20033;-63
2021/10/03 05:04:54;;;;;;;12.63;10.32;;;17.30;90.00;;;;;;5034193;28;20116;-64
2021/10/03 05:07:20;;;;;;;12.75;10.45;;;17.30;90.00;;;;;;5034604;28;20030;-64
2021/10/03 05:09:46;;;;;;;12.07;10.55;;;17.20;90.00;;;;;;5034490;28;20088;-64
2021/10/03 05:12:11;;;;;;;12.02;10.30;;;17.20;90.00;;;;;;5034664;28;20021;-64
2021/10/03 05:14:37;;;;;;;12.65;10.30;;;17.20;90.00;;;;;;5034959;28;20132;-64
2021/10/03 05:17:02;;;;;;;15.35;11.18;;;17.20;89.80;;;;;;5034393;28;20516;-65
2021/10/03 05:19:28;;;;;;;12.15;10.70;;;17.30;89.70;;;;;;5034538;28;20578;-64
2021/10/03 05:21:54;;;;;;;11.98;10.57;;;17.30;89.80;;;;;;5015968;28;20063;-65
2021/10/03 05:24:19;;;;;;;12.05;10.80;;;17.30;89.60;;;;;;5013287;28;20041;-64
2021/10/03 05:26:45;;;;;;;14.60;10.60;;;17.20;89.80;;;;;;5014517;28;20026;-65
2021/10/03 05:29:11;;;;;;;17.58;10.95;;;17.20;90.00;;;;;;5029000;28;20450;-64
2021/10/03 05:31:37;;;;;;;15.73;11.07;;;17.20;90.00;;;;;;5016262;28;20045;-65
2021/10/03 05:34:02;;;;;;;14.35;11.07;;;17.20;90.00;;;;;;5017455;28;20033;-64
2021/10/03 05:36:28;;;;;;;12.18;10.50;;;17.10;90.00;;;;;;5020955;28;20049;-64
2021/10/03 05:38:56;;;;;;;17.80;11.25;;;17.20;89.90;;;;;;5014146;28;20034;-65
2021/10/03 05:41:23;;;;;;;12.20;10.77;;;17.30;89.70;;;;;;5014090;28;20115;-64
2021/10/03 05:43:49;;;;;;;11.60;10.18;;;17.20;89.70;;;;;;5013972;28;20022;-64
2021/10/03 05:46:15;;;;;;;13.75;11.38;;;17.20;89.90;;;;;;5016437;28;20400;-63
2021/10/03 05:48:41;;;;;;;15.45;11.27;;;17.20;90.00;;;;;;5032970;28;20092;-63
2021/10/03 05:51:06;;;;;;;17.15;15.25;;;17.20;90.00;;;;;;5033364;28;20026;-64
2021/10/03 05:53:34;;;;;;;13.77;11.60;;;17.20;90.00;;;;;;5033567;28;20056;-64
2021/10/03 05:56:00;;;;;;;12.63;11.00;;;17.10;90.00;;;;;;5015899;28;20055;-64
2021/10/03 05:58:25;;;;;;;12.68;11.38;;;17.20;90.00;;;;;;5033846;28;20560;-64
2021/10/03 06:00:51;;;;;;;13.82;11.65;;;17.20;90.00;;;;;;5015685;28;20408;-64
2021/10/03 06:03:16;;;;;;;14.02;11.75;;;17.20;89.90;;;;;;5033613;28;20038;-63
2021/10/03 06:05:45;;;;;;;20.63;11.05;;;17.20;89.80;;;;;;5033748;28;20029;-65
2021/10/03 06:08:10;;;;;;;15.02;11.30;;;17.20;89.90;;;;;;5033706;28;20370;-64
2021/10/03 06:10:37;;;;;;;19.15;16.70;;;17.20;89.90;;;;;;5033190;28;20112;-64
2021/10/03 06:13:04;;;;;;;19.08;15.75;;;17.20;89.80;;;;;;5032578;28;20124;-63
2021/10/03 06:15:31;;;;;;;13.25;11.48;;;17.20;89.80;;;;;;5033086;28;20369;-64
2021/10/03 06:17:57;;;;;;;13.13;10.75;;;17.30;89.70;;;;;;5033480;28;20040;-64
2021/10/03 06:20:22;;;;;;;13.88;10.57;;;17.20;89.70;;;;;;5033310;28;20029;-64
2021/10/03 06:22:48;;;;;;;15.32;10.55;;;17.20;89.90;;;;;;5028024;28;20358;-64
2021/10/03 06:25:14;;;;;;;11.68;10.43;;;17.20;90.00;;;;;;5013765;28;20034;-64
2021/10/03 06:27:40;;;;;;;12.90;11.15;;;17.30;90.20;;;;;;5015951;28;20029;-64
2021/10/03 06:30:07;;;;;;;12.55;11.20;;;17.30;89.80;;;;;;5033254;28;20473;-64
2021/10/03 06:32:32;;;;;;;13.93;11.07;;;17.30;90.00;;;;;;5031269;28;20056;-65
2021/10/03 06:34:58;;;;;;;12.65;11.35;;;17.30;89.90;;;;;;5031923;28;20063;-63
2021/10/03 06:37:23;;;;;;;14.20;10.40;;;17.30;90.00;;;;;;5012275;28;20026;-64
2021/10/03 06:39:49;;;;;;;12.63;10.77;;;17.40;89.50;;;;;;5011497;28;20037;-63
2021/10/03 06:42:15;;;;;;;16.48;10.65;;;17.40;89.60;;;;;;5013015;28;20037;-66
2021/10/03 06:44:41;;;;;;;12.25;10.98;;;17.40;89.50;;;;;;5013169;28;20056;-65
2021/10/03 06:47:09;;;;;;;13.80;11.13;;;17.40;89.60;;;;;;5013116;28;20604;-63
2021/10/03 06:49:36;;;;;;;14.52;11.27;;;17.40;89.50;;;;;;5012660;28;20033;-64
2021/10/03 06:52:02;;;;;;;15.50;11.93;;;17.40;89.60;;;;;;5011440;28;20062;-64
2021/10/03 06:54:28;;;;;;;13.48;12.10;;;17.40;89.80;;;;;;5013449;28;20049;-64
2021/10/03 06:56:53;;;;;;;13.02;10.85;;;17.50;89.60;;;;;;5013347;28;20112;-64
2021/10/03 06:59:20;;;;;;;11.48;9.90;;;17.50;90.00;;;;;;5013023;28;20168;-65
2021/10/03 07:01:45;;;;;;;13.35;11.10;;;17.50;89.70;;;;;;5011170;28;20394;-65
2021/10/03 07:04:11;;;;;;;13.23;11.02;;;17.50;89.40;;;;;;5012878;28;20124;-64
2021/10/03 07:06:36;;;;;;;11.88;10.60;;;17.60;89.40;;;;;;5013334;28;20042;-64
2021/10/03 07:09:02;;;;;;;12.40;11.10;;;17.60;89.10;;;;;;5025071;28;20119;-65
2021/10/03 07:11:28;;;;;;;11.32;10.15;;;17.70;89.30;;;;;;5032084;28;20167;-65
2021/10/03 07:13:53;;;;;;;11.57;10.32;;;17.70;89.50;;;;;;5032269;28;20467;-65
2021/10/03 07:16:19;;;;;;;16.83;10.73;;;17.70;89.00;;;;;;5031333;28;20041;-65
2021/10/03 07:18:45;;;;;;;12.55;10.85;;;17.60;89.00;;;;;;5032994;28;20041;-64
2021/10/03 07:21:11;;;;;;;14.02;10.30;;;17.80;89.40;;;;;;5031947;28;20132;-64
2021/10/03 07:23:37;;;;;;;12.05;9.98;;;17.80;89.30;;;;;;5046915;28;20065;-64
2021/10/03 07:26:03;;;;;;;14.50;11.18;;;17.90;88.70;;;;;;5032594;28;20076;-64
2021/10/03 07:28:28;;;;;;;10.60;9.60;;;17.90;88.40;;;;;;5032389;28;20025;-64
2021/10/03 07:30:54;;;;;;;13.10;10.57;;;17.80;88.90;;;;;;5032379;28;20389;-64
2021/10/03 07:33:20;;;;;;;11.38;9.90;;;17.90;89.20;;;;;;5032662;28;20404;-64
2021/10/03 07:35:46;;;;;;;11.27;9.45;;;17.90;88.30;;;;;;5031870;28;20024;-65
2021/10/03 07:38:12;;;;;;;10.70;9.57;;;17.90;88.30;;;;;;5032635;28;20033;-64
2021/10/03 07:40:38;;;;;;;12.00;10.68;;;17.90;88.10;;;;;;5030762;28;20112;-66
2021/10/03 07:43:07;;;;;;;12.90;10.55;;;18.00;88.00;;;;;;5031913;28;20065;-64
2021/10/03 07:45:32;;;;;;;13.25;9.82;;;18.00;88.00;;;;;;5031706;28;20037;-63
2021/10/03 07:47:58;;;;;;;12.93;10.70;;;18.00;88.00;;;;;;5032604;28;20391;-64
2021/10/03 07:50:24;;;;;;;11.20;10.07;;;18.10;87.80;;;;;;5032327;28;20047;-64
2021/10/03 07:52:49;;;;;;;11.35;10.18;;;18.10;87.70;;;;;;5035523;28;20472;-65
2021/10/03 07:55:15;;;;;;;13.63;10.15;;;18.00;87.80;;;;;;5018188;28;20107;-64
2021/10/03 07:57:50;;;;;;;11.90;9.98;;;18.00;87.80;;;;;;5035953;28;20069;-63
2021/10/03 08:00:16;;;;;;;12.23;9.90;;;18.00;87.90;;;;;;5034882;28;20075;-63
2021/10/03 08:02:41;;;;;;;10.75;9.65;;;18.00;87.60;;;;;;5034550;28;20045;-64
2021/10/03 08:05:07;;;;;;;11.05;9.63;;;18.10;87.60;;;;;;5035566;28;20061;-64
2021/10/03 08:07:33;;;;;;;11.82;9.52;;;18.30;88.60;;;;;;5035484;28;20032;-65
2021/10/03 08:09:58;;;;;;;11.98;9.98;;;18.50;88.70;;;;;;5035538;28;20111;-64
2021/10/03 08:12:24;;;;;;;11.93;10.30;;;18.70;87.30;;;;;;5035048;28;20033;-64
2021/10/03 08:14:49;;;;;;;12.30;9.85;;;18.80;85.90;;;;;;5036069;28;20096;-64
2021/10/03 08:17:15;;;;;;;11.50;9.55;;;18.80;85.90;;;;;;5034556;28;20029;-64
2021/10/03 08:19:41;;;;;;;11.55;9.98;;;18.80;85.90;;;;;;5035850;28;20049;-65
2021/10/03 08:22:06;;;;;;;11.82;9.70;;;18.70;86.20;;;;;;5050181;28;20045;-63
2021/10/03 08:24:32;;;;;;;11.30;10.00;;;18.70;86.10;;;;;;5035810;28;20112;-64
2021/10/03 08:26:59;;;;;;;10.15;9.13;;;18.70;86.00;;;;;;5035921;28;20029;-64
2021/10/03 08:29:24;;;;;;;11.73;9.38;;;18.80;86.10;;;;;;5035526;28;20064;-63
2021/10/03 08:31:50;;;;;;;12.00;10.75;;;18.80;86.20;;;;;;5034855;28;20064;-65
2021/10/03 08:34:16;;;;;;;10.35;9.27;;;18.80;86.00;;;;;;5035454;28;20136;-64
2021/10/03 08:36:41;;;;;;;10.70;9.60;;;18.80;85.80;;;;;;5020205;28;20065;-65
2021/10/03 08:39:07;;;;;;;17.23;9.85;;;18.80;85.90;;;;;;5030341;28;20056;-65
2021/10/03 08:41:33;;;;;;;12.25;9.95;;;18.80;86.10;;;;;;5033608;28;20073;-64
2021/10/03 08:43:59;;;;;;;12.10;10.07;;;18.90;85.90;;;;;;5033593;28;20034;-64
2021/10/03 08:46:27;;;;;;;12.45;10.43;;;19.00;86.00;;;;;;5034104;28;20025;-65
2021/10/03 08:48:55;;;;;;;10.32;9.30;;;19.00;85.70;;;;;;5033647;28;20022;-64
2021/10/03 08:51:21;;;;;;;11.55;10.23;;;19.10;85.50;;;;;;5034469;28;20119;-65
2021/10/03 08:53:47;;;;;;;15.70;12.27;;;19.20;85.30;;;;;;5034321;28;20042;-64
2021/10/03 08:56:13;;;;;;;14.95;12.02;;;19.20;85.10;;;;;;5034761;28;20037;-65
2021/10/03 08:58:39;;;;;;;11.75;10.32;;;19.30;85.00;;;;;;5035150;28;20029;-63
2021/10/03 09:01:05;;;;;;;11.85;10.38;;;19.30;84.90;;;;;;5032493;28;20377;-65
2021/10/03 09:03:32;;;;;;;11.93;10.35;;;19.40;85.00;;;;;;5033726;28;20465;-65
2021/10/03 09:05:57;;;;;;;12.52;11.18;;;19.50;84.50;;;;;;5034594;28;20084;-63
2021/10/03 09:08:25;;;;;;;12.05;10.40;;;19.60;84.50;;;;;;5035195;28;20060;-65
2021/10/03 09:10:53;;;;;;;10.65;9.25;;;19.70;84.00;;;;;;5033894;28;20083;-64
2021/10/03 09:13:32;;;;;;;10.82;9.82;;;19.80;83.60;;;;;;5034341;28;20025;-64
2021/10/03 09:16:13;;;;;;;11.27;10.10;;;19.80;84.00;;;;;;5034518;28;20392;-64
2021/10/03 09:18:50;;;;;;;11.23;10.13;;;19.90;84.00;;;;;;5034868;28;20026;-64
2021/10/03 09:21:31;;;;;;;12.55;9.63;;;19.90;84.00;;;;;;5034712;28;20026;-64
2021/10/03 09:24:12;;;;;;;10.30;9.25;;;20.00;83.70;;;;;;5033449;28;20503;-65
2021/10/03 09:26:54;;;;;;;10.60;9.50;;;20.10;83.20;;;;;;5033895;28;20389;-64
2021/10/03 09:29:32;;;;;;;10.80;9.07;;;20.10;83.60;;;;;;5036879;28;20022;-65
2021/10/03 09:32:12;;;;;;;11.52;9.35;;;20.20;83.70;;;;;;5038793;28;20543;-64
2021/10/03 09:34:47;;;;;;;9.32;8.32;;;20.40;82.90;;;;;;5037695;28;20029;-64
2021/10/03 09:37:27;;;;;;;9.77;8.43;;;20.60;82.10;;;;;;5015526;28;20129;-64
2021/10/03 09:40:13;;;;;;;10.02;9.02;;;20.60;80.80;;;;;;5014703;28;20041;-65
2021/10/03 09:42:42;;;;;;;11.02;9.02;;;20.60;79.70;;;;;;5017326;28;20028;-65
2021/10/03 09:45:12;;;;;;;10.15;8.13;;;20.70;80.00;;;;;;5034376;28;20040;-65
2021/10/03 09:47:40;;;;;;;13.45;10.35;;;20.80;79.40;;;;;;5033790;28;20026;-65
2021/10/03 09:50:11;;;;;;;13.25;11.60;;;20.90;79.80;;;;;;5034447;28;20489;-65
2021/10/03 09:52:38;;;;;;;11.07;8.90;;;21.00;80.00;;;;;;5034257;28;20044;-65
2021/10/03 09:55:05;;;;;;;12.10;8.93;;;21.10;79.40;;;;;;5028805;28;20122;-65
2021/10/03 09:57:31;;;;;;;11.82;8.32;;;21.10;79.40;;;;;;5031909;28;20037;-65
2021/10/03 09:59:57;;;;;;;10.13;8.20;;;21.30;79.40;;;;;;5033971;28;20044;-65
2021/10/03 10:02:23;;;;;;;11.95;8.70;;;21.30;79.30;;;;;;5032979;28;20025;-64
2021/10/03 10:04:49;;;;;;;12.77;9.38;;;21.40;79.40;;;;;;5034087;28;20045;-64
2021/10/03 10:07:16;;;;;;;11.63;8.55;;;21.50;79.30;;;;;;5033567;28;20033;-65
2021/10/03 10:09:44;;;;;;;9.68;8.70;;;21.50;79.10;;;;;;5031377;28;20033;-65
2021/10/03 10:12:09;;;;;;;9.80;8.27;;;21.70;78.60;;;;;;5026284;28;20021;-64
2021/10/03 10:14:56;;;;;;;14.65;9.00;;;21.60;78.80;;;;;;5019027;28;20103;-64
2021/10/03 10:17:39;;;;;;;8.63;7.82;;;21.70;78.30;;;;;;5033671;28;20038;-65
2021/10/03 10:20:27;;;;;;;8.93;8.02;;;21.80;78.70;;;;;;5030044;28;20034;-66
2021/10/03 10:22:57;;;;;;;9.02;8.18;;;21.70;79.00;;;;;;5019956;28;20091;-64
2021/10/03 10:25:49;;;;;;;9.52;8.50;;;21.90;79.00;;;;;;5032886;28;20037;-64
2021/10/03 10:28:21;;;;;;;9.77;8.40;;;21.90;78.90;;;;;;5033320;28;20116;-65
2021/10/03 10:31:15;;;;;;;12.82;8.23;;;21.80;78.80;;;;;;5032987;28;20485;-64
2021/10/03 10:33:49;;;;;;;9.13;7.88;;;21.80;78.30;;;;;;5033714;28;20039;-65
2021/10/03 10:36:28;;;;;;;9.27;7.88;;;21.70;78.70;;;;;;5034286;28;20112;-65
2021/10/03 10:39:08;;;;;;;8.25;7.45;;;21.50;78.40;;;;;;5033471;28;20168;-65
2021/10/03 10:41:46;;;;;;;9.55;8.40;;;21.60;78.30;;;;;;5032961;28;20477;-64
2021/10/03 10:44:24;;;;;;;13.05;8.15;;;21.60;78.00;;;;;;5032579;28;20049;-65
2021/10/03 10:46:53;;;;;;;12.38;7.95;;;21.70;78.50;;;;;;5029388;28;20061;-65
2021/10/03 10:49:38;;;;;;;17.60;13.43;;;21.80;78.70;;;;;;5014924;28;20026;-65
2021/10/03 10:52:19;;;;;;;9.68;7.57;;;21.80;79.00;;;;;;5013630;28;20034;-64
2021/10/03 10:55:00;;;;;;;11.73;7.65;;;21.70;77.80;;;;;;5013217;28;20054;-64
2021/10/03 10:57:52;;;;;;;10.82;7.72;;;21.80;78.20;;;;;;5014710;28;20429;-63
2021/10/03 11:00:26;;;;;;;10.05;8.02;;;21.90;77.90;;;;;;5016564;28;20044;-65
2021/10/03 11:03:00;;;;;;;8.93;8.02;;;22.00;77.10;;;;;;5033084;28;20092;-65
2021/10/03 11:05:35;;;;;;;10.35;7.57;;;22.00;77.90;;;;;;5032395;28;20097;-65
2021/10/03 11:08:05;;;;;;;8.45;7.65;;;22.10;77.60;;;;;;5033887;28;20036;-65
2021/10/03 11:10:31;;;;;;;9.32;7.93;;;22.10;77.10;;;;;;5032912;28;20034;-63
2021/10/03 11:12:56;;;;;;;8.40;6.88;;;22.20;76.20;;;;;;5033266;28;20417;-64
2021/10/03 11:15:24;;;;;;;8.55;7.65;;;22.20;76.10;;;;;;5032672;28;20025;-65
2021/10/03 11:17:51;;;;;;;8.63;7.72;;;22.00;76.40;;;;;;5032793;28;20132;-65
2021/10/03 11:20:16;;;;;;;8.07;7.00;;;22.10;75.90;;;;;;5032868;28;20037;-64
2021/10/03 11:22:44;;;;;;;9.82;8.65;;;22.10;76.30;;;;;;5032635;28;20079;-64
2021/10/03 11:25:16;;;;;;;9.80;8.63;;;22.00;76.10;;;;;;5033272;28;20033;-65
2021/10/03 11:27:42;;;;;;;9.57;7.35;;;22.00;76.60;;;;;;5036652;28;20164;-64
2021/10/03 11:30:08;;;;;;;18.92;14.57;;;22.00;76.30;;;;;;5035047;28;20063;-65
2021/10/03 11:32:38;;;;;;;11.30;9.88;;;22.00;76.10;;;;;;5035505;28;20481;-64
2021/10/03 11:35:06;;;;;;;10.05;7.78;;;22.20;76.00;;;;;;5034817;28;20124;-63
2021/10/03 11:37:45;;;;;;;8.38;7.45;;;22.20;75.40;;;;;;5016632;28;20034;-66
2021/10/03 11:40:19;;;;;;;11.27;7.53;;;22.30;74.40;;;;;;5017143;28;20519;-66
2021/10/03 11:42:51;;;;;;;8.77;7.32;;;22.20;75.30;;;;;;5015740;28;20034;-65
2021/10/03 11:45:20;;;;;;;8.20;7.13;;;22.30;75.00;;;;;;5018026;28;20112;-65
2021/10/03 11:47:52;;;;;;;8.43;7.05;;;22.20;74.10;;;;;;5017521;28;20038;-65
2021/10/03 11:50:26;;;;;;;9.27;8.07;;;22.20;74.90;;;;;;5016514;28;20456;-65
2021/10/03 11:52:56;;;;;;;9.95;8.75;;;22.10;74.80;;;;;;5016735;28;20061;-64
2021/10/03 11:55:32;;;;;;;12.55;9.85;;;22.20;74.80;;;;;;5015979;28;20156;-65
2021/10/03 11:58:04;;;;;;;8.75;7.10;;;22.20;75.30;;;;;;5035096;28;20423;-65
2021/10/03 12:00:31;;;;;;;9.88;7.93;;;22.30;74.90;;;;;;5036136;28;20029;-65
2021/10/03 12:03:04;;;;;;;9.43;7.78;;;22.30;74.90;;;;;;5036166;28;20120;-66
2021/10/03 12:05:34;;;;;;;9.27;8.35;;;22.30;74.50;;;;;;5036607;28;20065;-64
2021/10/03 12:08:03;;;;;;;9.77;6.82;;;22.40;74.70;;;;;;5036250;28;20124;-65
2021/10/03 12:10:36;;;;;;;9.00;7.40;;;22.60;73.80;;;;;;5035344;28;20026;-66
2021/10/03 12:13:11;;;;;;;10.52;7.32;;;22.70;73.20;;;;;;5036949;28;20022;-65
2021/10/03 12:15:39;;;;;;;7.88;7.05;;;22.50;73.40;;;;;;5035859;28;20071;-65
2021/10/03 12:18:29;;;;;;;11.38;7.18;;;22.40;73.20;;;;;;5036168;28;20112;-65
2021/10/03 12:21:09;;;;;;;7.47;6.68;;;22.20;74.00;;;;;;5027572;28;20037;-66
2021/10/03 12:23:39;;;;;;;11.15;8.15;;;22.30;74.10;;;;;;5016156;28;20062;-65
2021/10/03 12:26:17;;;;;;;8.77;7.32;;;22.20;73.40;;;;;;5016198;28;20034;-64
2021/10/03 12:28:58;;;;;;;10.93;6.95;;;22.20;73.20;;;;;;5015633;28;20747;-63
2021/10/03 12:31:55;;;;;;;7.85;6.90;;;22.20;72.80;;;;;;5016081;28;20030;-64
2021/10/03 12:34:23;;;;;;;8.27;7.20;;;22.20;72.30;;;;;;5016821;28;20120;-64
2021/10/03 12:36:48;;;;;;;9.00;7.88;;;22.30;72.50;;;;;;5030518;28;20032;-63
2021/10/03 12:39:24;;;;;;;9.90;8.40;;;22.20;72.90;;;;;;5035106;28;20041;-65
2021/10/03 12:41:55;;;;;;;8.90;8.00;;;22.30;73.20;;;;;;5034932;28;20447;-65
2021/10/03 12:44:28;;;;;;;9.32;7.50;;;22.30;72.90;;;;;;5035319;28;20083;-65